createdAt,value
2022-09-12T00:01:19.196Z,19.00
2022-09-12T00:03:45.940Z,19.35
2022-09-12T00:06:22.929Z,20.10
2022-09-12T00:08:50.421Z,20.35
2022-09-12T00:11:16.957Z,40.92
2022-09-12T00:13:43.595Z,21.40
2022-09-12T00:16:19.206Z,24.65
2022-09-12T00:18:46.054Z,24.55
2022-09-12T00:21:12.954Z,22.35
2022-09-12T00:23:39.292Z,19.17
2022-09-12T00:26:07.155Z,17.55
2022-09-12T00:28:35.724Z,18.15
2022-09-12T00:31:05.722Z,22.10
2022-09-12T00:33:32.391Z,18.98
2022-09-12T00:35:58.782Z,24.10
2022-09-12T00:38:25.100Z,19.33
2022-09-12T00:40:51.521Z,29.15
2022-09-12T00:43:29.756Z,31.20
2022-09-12T00:45:58.371Z,24.15
2022-09-12T00:48:33.619Z,53.15
2022-09-12T00:51:00.753Z,44.42
2022-09-12T00:53:27.782Z,202.60
2022-09-12T00:55:55.947Z,91.40
2022-09-12T00:58:27.069Z,158.05
2022-09-12T01:00:53.662Z,189.90
2022-09-12T01:03:23.034Z,79.63
2022-09-12T01:05:56.455Z,60.20
2022-09-12T01:08:23.431Z,22.90
2022-09-12T01:10:49.927Z,26.63
2022-09-12T01:13:16.743Z,45.70
2022-09-12T01:15:43.166Z,17.80
2022-09-12T01:18:32.210Z,52.10
2022-09-12T01:21:17.444Z,36.17
2022-09-12T01:23:43.741Z,25.20
2022-09-12T01:26:35.262Z,21.15
2022-09-12T01:29:37.468Z,208.82
2022-09-12T01:32:15.392Z,55.97
2022-09-12T01:35:02.451Z,47.08
2022-09-12T01:37:39.253Z,192.90
2022-09-12T01:40:11.712Z,86.10
2022-09-12T01:42:54.957Z,209.02
2022-09-12T01:45:28.989Z,125.63
2022-09-12T01:48:13.512Z,81.25
2022-09-12T01:50:46.644Z,29.33
2022-09-12T01:53:21.022Z,37.15
2022-09-12T01:56:13.211Z,30.67
2022-09-12T01:59:02.642Z,27.75
2022-09-12T02:01:32.748Z,31.13
2022-09-12T02:04:11.340Z,32.97
2022-09-12T02:06:48.634Z,37.50
2022-09-12T02:09:34.256Z,51.80
2022-09-12T02:12:01.539Z,65.50
2022-09-12T02:14:32.191Z,39.63
2022-09-12T02:17:14.688Z,49.15
2022-09-12T02:19:46.374Z,41.50
2022-09-12T02:22:17.660Z,20.70
2022-09-12T02:24:48.000Z,84.15
2022-09-12T02:27:18.066Z,74.25
2022-09-12T02:29:45.498Z,117.50
2022-09-12T02:32:29.865Z,93.68
2022-09-12T02:35:14.624Z,47.17
2022-09-12T02:38:09.899Z,32.50
2022-09-12T02:40:37.255Z,24.25
2022-09-12T02:43:05.149Z,24.08
2022-09-12T02:45:32.842Z,26.25
2022-09-12T02:48:16.830Z,37.63
2022-09-12T02:50:43.475Z,35.17
2022-09-12T02:53:10.566Z,35.60
2022-09-12T02:55:39.245Z,34.00
2022-09-12T02:58:10.383Z,33.85
2022-09-12T03:01:02.817Z,31.95
2022-09-12T03:03:49.971Z,26.75
2022-09-12T03:06:23.279Z,28.38
2022-09-12T03:09:05.057Z,35.33
2022-09-12T03:11:34.163Z,25.25
2022-09-12T03:14:23.043Z,21.38
2022-09-12T03:16:49.480Z,21.13
2022-09-12T03:19:20.989Z,22.27
2022-09-12T03:22:09.077Z,30.25
2022-09-12T03:24:40.888Z,24.83
2022-09-12T03:27:17.051Z,17.40
2022-09-12T03:29:45.507Z,68.53
2022-09-12T03:32:11.850Z,175.20
2022-09-12T03:34:38.194Z,36.97
2022-09-12T03:37:04.827Z,22.33
2022-09-12T03:39:31.151Z,19.77
2022-09-12T03:41:57.652Z,33.97
2022-09-12T03:44:24.802Z,22.15
2022-09-12T03:46:51.402Z,30.75
2022-09-12T03:49:17.719Z,25.13
2022-09-12T03:51:44.286Z,24.23
2022-09-12T03:54:11.264Z,209.98
2022-09-12T03:56:37.711Z,42.30
2022-09-12T03:59:07.272Z,149.75
2022-09-12T04:01:34.411Z,73.68
2022-09-12T04:04:00.816Z,22.42
2022-09-12T04:06:27.167Z,21.60
2022-09-12T04:08:54.864Z,20.83
2022-09-12T04:11:22.846Z,27.98
2022-09-12T04:13:49.797Z,33.78
2022-09-12T04:16:17.304Z,55.08
2022-09-12T04:18:43.958Z,41.47
2022-09-12T04:21:16.716Z,24.25
2022-09-12T04:23:43.641Z,27.60
2022-09-12T04:26:10.496Z,31.00
2022-09-12T04:28:38.369Z,44.22
2022-09-12T04:31:08.163Z,52.03
2022-09-12T04:33:37.223Z,26.23
2022-09-12T04:36:05.786Z,26.33
2022-09-12T04:38:33.115Z,24.55
2022-09-12T04:40:59.464Z,22.42
2022-09-12T04:43:25.836Z,24.88
2022-09-12T04:45:52.371Z,23.25
2022-09-12T04:48:18.737Z,32.58
2022-09-12T04:50:45.070Z,42.58
2022-09-12T04:53:11.400Z,40.78
2022-09-12T04:55:37.733Z,28.85
2022-09-12T04:58:04.051Z,27.30
2022-09-12T05:00:30.372Z,41.95
2022-09-12T05:02:56.678Z,24.27
2022-09-12T05:05:23.036Z,40.22
2022-09-12T05:07:49.372Z,38.33
2022-09-12T05:10:15.818Z,20.02
2022-09-12T05:12:42.139Z,44.42
2022-09-12T05:15:09.083Z,32.65
2022-09-12T05:17:35.429Z,40.63
2022-09-12T05:20:02.670Z,21.02
2022-09-12T05:22:28.986Z,24.33
2022-09-12T05:24:55.352Z,22.15
2022-09-12T05:27:21.700Z,31.38
2022-09-12T05:29:48.025Z,26.52
2022-09-12T05:32:14.339Z,31.52
2022-09-12T05:34:40.708Z,27.95
2022-09-12T05:37:07.057Z,54.50
2022-09-12T05:39:33.342Z,38.65
2022-09-12T05:41:59.669Z,29.77
2022-09-12T05:44:26.032Z,25.90
2022-09-12T05:46:52.321Z,42.63
2022-09-12T05:49:18.681Z,19.42
2022-09-12T05:51:45.966Z,17.00
2022-09-12T05:54:15.135Z,24.65
2022-09-12T05:56:43.833Z,19.52
2022-09-12T05:59:13.627Z,28.02
2022-09-12T06:01:40.733Z,26.40
2022-09-12T06:04:07.520Z,27.85
2022-09-12T06:06:37.624Z,32.47
2022-09-12T06:09:05.542Z,22.80
2022-09-12T06:11:34.081Z,27.30
2022-09-12T06:14:01.110Z,24.23
2022-09-12T06:16:29.998Z,27.27
2022-09-12T06:18:59.046Z,27.98
2022-09-12T06:21:26.687Z,32.60
2022-09-12T06:23:56.874Z,37.38
2022-09-12T06:26:23.406Z,33.97
2022-09-12T06:28:51.886Z,43.20
2022-09-12T06:31:20.878Z,41.30
2022-09-12T06:33:50.102Z,51.58
2022-09-12T06:36:22.021Z,50.60
2022-09-12T06:38:48.875Z,54.10
2022-09-12T06:41:15.586Z,57.65
2022-09-12T06:43:42.573Z,56.28
2022-09-12T06:46:10.019Z,55.47
2022-09-12T06:48:41.523Z,48.13
2022-09-12T06:51:13.509Z,48.78
2022-09-12T06:53:40.231Z,56.30
2022-09-12T06:56:08.887Z,60.58
2022-09-12T06:58:36.211Z,70.90
2022-09-12T07:01:24.532Z,61.92
2022-09-12T07:03:55.548Z,59.63
2022-09-12T07:06:24.130Z,55.45
2022-09-12T07:08:50.541Z,51.63
2022-09-12T07:11:20.016Z,51.28
2022-09-12T07:13:50.412Z,45.65
2022-09-12T07:16:19.951Z,49.10
2022-09-12T07:18:54.139Z,46.10
2022-09-12T07:21:21.106Z,41.47
2022-09-12T07:23:48.367Z,40.15
2022-09-12T07:26:16.296Z,41.63
2022-09-12T07:28:42.843Z,40.33
2022-09-12T07:31:15.706Z,42.40
2022-09-12T07:33:43.080Z,41.03
2022-09-12T07:36:14.737Z,38.15
2022-09-12T07:38:41.952Z,43.05
2022-09-12T07:41:18.455Z,37.47
2022-09-12T07:43:45.276Z,42.17
2022-09-12T07:46:12.388Z,42.70
2022-09-12T07:48:39.553Z,41.42
2022-09-12T07:51:08.053Z,40.20
2022-09-12T07:53:37.143Z,42.13
2022-09-12T07:56:04.490Z,39.03
2022-09-12T07:58:32.514Z,36.92
2022-09-12T08:01:06.289Z,36.95
2022-09-12T08:03:32.643Z,39.42
2022-09-12T08:06:09.743Z,36.83
2022-09-12T08:08:36.804Z,37.05
2022-09-12T08:11:06.020Z,38.38
2022-09-12T08:13:34.369Z,39.55
2022-09-12T08:16:03.163Z,36.78
2022-09-12T08:18:30.798Z,38.35
2022-09-12T08:20:59.273Z,35.58
2022-09-12T08:23:26.173Z,34.80
2022-09-12T08:25:55.935Z,36.00
2022-09-12T08:28:22.377Z,35.75
2022-09-12T08:30:48.733Z,33.95
2022-09-12T08:33:15.076Z,34.25
2022-09-12T08:35:41.410Z,34.50
2022-09-12T08:38:07.737Z,33.53
2022-09-12T08:40:46.823Z,34.17
2022-09-12T08:43:33.725Z,33.83
2022-09-12T08:46:16.732Z,35.38
2022-09-12T08:48:50.227Z,32.17
2022-09-12T08:51:20.034Z,31.55
2022-09-12T08:53:49.004Z,33.10
2022-09-12T08:56:15.397Z,31.50
2022-09-12T08:58:44.252Z,32.80
2022-09-12T09:01:33.351Z,32.05
2022-09-12T09:04:26.904Z,31.45
2022-09-12T09:07:08.276Z,30.83
2022-09-12T09:09:49.823Z,32.40
2022-09-12T09:12:25.296Z,30.50
2022-09-12T09:14:59.859Z,30.67
2022-09-12T09:17:41.219Z,28.65
2022-09-12T09:20:34.597Z,28.65
2022-09-12T09:23:12.684Z,27.65
2022-09-12T09:26:09.943Z,28.70
2022-09-12T09:28:42.553Z,27.25
2022-09-12T09:31:16.753Z,29.05
2022-09-12T09:33:44.328Z,30.77
2022-09-12T09:36:49.948Z,27.42
2022-09-12T09:39:28.505Z,29.13
2022-09-12T09:42:10.335Z,28.52
2022-09-12T09:44:37.005Z,30.02
2022-09-12T09:47:03.436Z,28.00
2022-09-12T09:49:33.658Z,26.85
2022-09-12T09:52:00.956Z,25.40
2022-09-12T09:54:40.687Z,26.42
2022-09-12T09:57:34.800Z,28.27
2022-09-12T10:00:24.272Z,26.90
2022-09-12T10:03:21.768Z,25.85
2022-09-12T10:05:51.502Z,28.92
2022-09-12T10:08:30.068Z,26.98
2022-09-12T10:11:06.115Z,29.00
2022-09-12T10:13:39.516Z,27.23
2022-09-12T10:16:17.518Z,25.83
2022-09-12T10:18:43.945Z,25.67
2022-09-12T10:21:21.779Z,26.52
2022-09-12T10:23:58.001Z,25.10
2022-09-12T10:26:24.444Z,25.63
2022-09-12T10:28:53.724Z,25.20
2022-09-12T10:31:26.462Z,23.65
2022-09-12T10:33:52.977Z,23.05
2022-09-12T10:36:20.763Z,23.95
2022-09-12T10:39:01.212Z,20.85
2022-09-12T10:41:36.458Z,20.50
2022-09-12T10:44:16.061Z,20.05
2022-09-12T10:46:42.358Z,18.35
2022-09-12T10:49:14.591Z,19.70
2022-09-12T10:51:40.953Z,18.27
2022-09-12T10:54:10.635Z,20.73
2022-09-12T10:56:44.597Z,16.50
2022-09-12T10:59:43.117Z,18.63
2022-09-12T11:02:18.722Z,16.27
2022-09-12T11:05:14.295Z,19.05
2022-09-12T11:10:44.445Z,17.30
2022-09-12T11:13:20.028Z,12.88
2022-09-12T11:16:09.347Z,8.82
2022-09-12T11:19:06.917Z,8.02
2022-09-12T11:22:16.451Z,9.38
2022-09-12T11:25:10.426Z,8.93
2022-09-12T11:28:14.046Z,7.45
2022-09-12T11:31:20.248Z,11.23
2022-09-12T11:33:52.407Z,9.00
2022-09-12T11:36:41.303Z,8.85
2022-09-12T11:39:14.637Z,8.90
2022-09-12T11:42:04.270Z,8.93
2022-09-12T11:44:40.425Z,6.90
2022-09-12T11:47:14.283Z,8.32
2022-09-12T11:49:47.029Z,6.85
2022-09-12T11:52:25.420Z,8.15
2022-09-12T11:54:57.490Z,8.98
2022-09-12T11:57:39.220Z,8.13
2022-09-12T12:00:15.864Z,8.30
2022-09-12T12:03:04.713Z,8.05
2022-09-12T12:05:37.249Z,8.70
2022-09-12T12:08:06.371Z,7.45
2022-09-12T12:10:37.752Z,7.05
2022-09-12T12:13:18.256Z,7.05
2022-09-12T12:15:48.417Z,7.00
2022-09-12T12:18:29.672Z,7.00
2022-09-12T12:21:15.606Z,9.55
2022-09-12T12:24:03.684Z,6.15
2022-09-12T12:26:38.876Z,5.63
2022-09-12T12:29:31.568Z,7.13
2022-09-12T12:32:03.564Z,8.00
2022-09-12T12:34:41.045Z,7.53
2022-09-12T12:37:19.577Z,7.10
2022-09-12T12:39:45.915Z,7.93
2022-09-12T12:42:35.133Z,6.80
2022-09-12T12:45:16.741Z,9.50
2022-09-12T12:47:47.487Z,6.18
2022-09-12T12:50:16.842Z,6.53
2022-09-12T12:52:59.867Z,7.00
2022-09-12T12:55:46.022Z,6.20
2022-09-12T12:58:27.011Z,6.53
2022-09-12T13:01:16.776Z,6.18
2022-09-12T13:03:54.422Z,6.40
2022-09-12T13:09:27.622Z,6.07
2022-09-12T13:12:05.275Z,7.97
2022-09-12T13:14:48.078Z,7.07
2022-09-12T13:17:21.794Z,8.10
2022-09-12T13:19:49.743Z,7.97
2022-09-12T13:22:16.190Z,7.53
2022-09-12T13:24:44.211Z,9.70
2022-09-12T13:27:23.249Z,8.52
2022-09-12T13:29:50.076Z,7.00
2022-09-12T13:32:18.212Z,6.97
2022-09-12T13:35:01.305Z,7.50
2022-09-12T13:37:47.580Z,7.30
2022-09-12T13:40:41.027Z,6.90
2022-09-12T13:43:29.205Z,7.03
2022-09-12T13:45:55.638Z,8.02
2022-09-12T13:48:25.163Z,7.15
2022-09-12T13:50:54.143Z,5.80
2022-09-12T13:53:23.717Z,7.05
2022-09-12T13:55:53.534Z,7.05
2022-09-12T13:58:24.432Z,7.10
2022-09-12T14:01:06.197Z,6.38
2022-09-12T14:03:38.639Z,6.20
2022-09-12T14:06:05.026Z,8.40
2022-09-12T14:08:31.540Z,7.72
2022-09-12T14:10:57.956Z,9.70
2022-09-12T14:13:26.571Z,8.50
2022-09-12T14:15:55.723Z,7.32
2022-09-12T14:18:30.600Z,7.85
2022-09-12T14:21:08.579Z,6.45
2022-09-12T14:23:36.087Z,7.43
2022-09-12T14:26:04.308Z,8.43
2022-09-12T14:28:31.940Z,7.03
2022-09-12T14:31:22.755Z,7.53
2022-09-12T14:33:53.493Z,7.70
2022-09-12T14:36:40.213Z,8.63
2022-09-12T14:39:18.108Z,8.57
2022-09-12T14:41:44.956Z,10.13
2022-09-12T14:44:17.834Z,6.82
2022-09-12T14:46:44.805Z,6.97
2022-09-12T14:49:19.354Z,7.70
2022-09-12T14:51:57.901Z,9.40
2022-09-12T14:54:44.505Z,8.10
2022-09-12T14:57:30.615Z,7.53
2022-09-12T15:00:26.539Z,7.63
2022-09-12T15:02:53.479Z,7.00
2022-09-12T15:05:23.702Z,7.70
2022-09-12T15:07:58.714Z,7.57
2022-09-12T15:10:28.031Z,7.63
2022-09-12T15:13:09.424Z,9.13
2022-09-12T15:15:38.079Z,10.23
2022-09-12T15:18:06.807Z,9.95
2022-09-12T15:20:36.142Z,7.15
2022-09-12T15:23:02.502Z,6.60
2022-09-12T15:25:28.825Z,7.00
2022-09-12T15:27:55.208Z,6.55
2022-09-12T15:30:21.836Z,7.20
2022-09-12T15:32:48.138Z,7.63
2022-09-12T15:35:23.600Z,6.70
2022-09-12T15:37:50.040Z,8.45
2022-09-12T15:40:17.014Z,7.50
2022-09-12T15:42:43.583Z,8.63
2022-09-12T15:45:22.504Z,8.55
2022-09-12T15:47:48.993Z,7.00
2022-09-12T15:50:15.380Z,7.68
2022-09-12T15:52:42.375Z,9.25
2022-09-12T15:55:21.152Z,7.30
2022-09-12T15:57:47.750Z,7.15
2022-09-12T16:00:15.368Z,7.65
2022-09-12T16:02:41.774Z,7.65
2022-09-12T16:05:14.276Z,6.55
2022-09-12T16:07:40.603Z,7.72
2022-09-12T16:10:07.445Z,7.53
2022-09-12T16:12:33.800Z,7.15
2022-09-12T16:15:00.111Z,6.72
2022-09-12T16:17:26.466Z,7.18
2022-09-12T16:19:52.811Z,7.15
2022-09-12T16:22:19.128Z,7.53
2022-09-12T16:24:45.435Z,7.20
2022-09-12T16:27:12.002Z,7.55
2022-09-12T16:29:38.377Z,6.80
2022-09-12T16:32:04.818Z,7.53
2022-09-12T16:34:31.147Z,8.38
2022-09-12T16:36:57.456Z,6.93
2022-09-12T16:39:23.768Z,6.88
2022-09-12T16:41:50.111Z,8.05
2022-09-12T16:44:16.398Z,8.00
2022-09-12T16:46:42.770Z,7.25
2022-09-12T16:49:10.171Z,7.03
2022-09-12T16:51:36.516Z,7.72
2022-09-12T16:54:02.894Z,6.97
2022-09-12T16:56:29.658Z,7.32
2022-09-12T16:58:56.022Z,8.93
2022-09-12T17:01:24.532Z,7.50
2022-09-12T17:03:58.741Z,9.48
2022-09-12T17:06:26.126Z,7.57
2022-09-12T17:08:54.293Z,8.25
2022-09-12T17:11:24.223Z,7.75
2022-09-12T17:14:05.048Z,8.00
2022-09-12T17:16:34.356Z,7.60
2022-09-12T17:19:00.682Z,8.60
2022-09-12T17:21:27.050Z,8.75
2022-09-12T17:23:53.597Z,7.72
2022-09-12T17:26:20.327Z,8.25
2022-09-12T17:28:46.655Z,8.32
2022-09-12T17:31:14.550Z,8.52
2022-09-12T17:33:41.383Z,8.57
2022-09-12T17:36:11.199Z,9.85
2022-09-12T17:38:39.492Z,8.88
2022-09-12T17:41:15.133Z,8.90
2022-09-12T17:43:42.139Z,9.02
2022-09-12T17:46:08.618Z,10.90
2022-09-12T17:48:35.321Z,9.50
2022-09-12T17:51:09.875Z,11.10
2022-09-12T17:53:36.246Z,10.23
2022-09-12T17:56:03.857Z,12.38
2022-09-12T17:58:32.329Z,12.40
2022-09-12T18:01:06.719Z,11.63
2022-09-12T18:03:33.023Z,11.23
2022-09-12T18:05:59.332Z,11.35
2022-09-12T18:08:25.697Z,10.20
2022-09-12T18:10:52.068Z,10.88
2022-09-12T18:13:18.515Z,8.20
2022-09-12T18:15:44.953Z,10.35
2022-09-12T18:18:11.332Z,9.48
2022-09-12T18:20:37.648Z,8.95
2022-09-12T18:23:03.983Z,9.02
2022-09-12T18:25:30.292Z,9.48
2022-09-12T18:27:56.587Z,9.90
2022-09-12T18:30:22.966Z,9.38
2022-09-12T18:32:49.331Z,12.40
2022-09-12T18:35:15.855Z,10.05
2022-09-12T18:37:42.822Z,12.18
2022-09-12T18:40:10.000Z,13.13
2022-09-12T18:42:36.345Z,12.15
2022-09-12T18:45:02.669Z,10.38
2022-09-12T18:47:28.982Z,9.80
2022-09-12T18:49:55.308Z,10.57
2022-09-12T18:52:21.598Z,10.48
2022-09-12T18:54:47.900Z,8.43
2022-09-12T18:57:14.218Z,9.52
2022-09-12T18:59:40.507Z,9.40
2022-09-12T19:02:06.967Z,9.60
2022-09-12T19:04:33.345Z,11.05
2022-09-12T19:06:59.652Z,10.18
2022-09-12T19:09:26.043Z,10.73
2022-09-12T19:11:52.363Z,9.60
2022-09-12T19:14:20.997Z,9.40
2022-09-12T19:16:47.293Z,9.48
2022-09-12T19:19:13.684Z,9.43
2022-09-12T19:21:39.978Z,8.93
2022-09-12T19:24:08.563Z,10.05
2022-09-12T19:26:36.326Z,9.45
2022-09-12T19:29:03.117Z,12.50
2022-09-12T19:31:30.462Z,10.60
2022-09-12T19:34:05.002Z,10.50
2022-09-12T19:36:45.045Z,12.10
2022-09-12T19:39:13.192Z,14.38
2022-09-12T19:41:39.579Z,15.93
2022-09-12T19:44:06.134Z,13.65
2022-09-12T19:46:32.699Z,16.00
2022-09-12T19:48:59.080Z,16.17
2022-09-12T19:51:25.511Z,17.67
2022-09-12T19:53:52.327Z,16.92
2022-09-12T19:56:19.399Z,16.30
2022-09-12T19:58:49.846Z,16.00
2022-09-12T20:01:22.695Z,15.00
2022-09-12T20:03:49.102Z,12.73
2022-09-12T20:06:17.349Z,14.55
2022-09-12T20:08:43.845Z,15.00
2022-09-12T20:11:12.526Z,14.73
2022-09-12T20:13:38.896Z,16.50
2022-09-12T20:16:30.434Z,16.92
2022-09-12T20:19:00.255Z,15.32
2022-09-12T20:21:28.845Z,16.33
2022-09-12T20:23:55.174Z,15.00
2022-09-12T20:26:21.465Z,16.80
2022-09-12T20:28:48.003Z,16.55
2022-09-12T20:31:15.673Z,16.08
2022-09-12T20:33:42.975Z,16.70
2022-09-12T20:36:12.176Z,14.75
2022-09-12T20:38:38.868Z,17.63
2022-09-12T20:41:07.590Z,16.70
2022-09-12T20:43:33.944Z,16.88
2022-09-12T20:46:04.861Z,19.45
2022-09-12T20:48:31.179Z,16.10
2022-09-12T20:51:00.685Z,17.13
2022-09-12T20:53:30.646Z,19.73
2022-09-12T20:56:00.814Z,17.92
2022-09-12T20:58:27.125Z,16.05
2022-09-12T21:00:53.612Z,16.13
2022-09-12T21:03:19.945Z,17.13
2022-09-12T21:05:46.570Z,16.67
2022-09-12T21:08:14.155Z,14.98
2022-09-12T21:10:41.486Z,14.15
2022-09-12T21:13:12.458Z,15.95
2022-09-12T21:15:40.263Z,17.92
2022-09-12T21:18:07.158Z,15.07
2022-09-12T21:20:33.688Z,14.55
2022-09-12T21:23:00.130Z,18.15
2022-09-12T21:25:26.544Z,16.88
2022-09-12T21:27:52.916Z,16.00
2022-09-12T21:30:19.229Z,16.90
2022-09-12T21:32:45.587Z,18.90
2022-09-12T21:35:11.900Z,15.43
2022-09-12T21:37:38.471Z,18.25
2022-09-12T21:40:05.189Z,15.68
2022-09-12T21:42:31.530Z,16.08
2022-09-12T21:44:57.838Z,19.98
2022-09-12T21:47:24.159Z,18.88
2022-09-12T21:49:50.524Z,16.13
2022-09-12T21:52:16.858Z,19.58
2022-09-12T21:54:43.193Z,17.10
2022-09-12T21:57:09.510Z,17.23
2022-09-12T21:59:35.812Z,18.42
2022-09-12T22:02:02.194Z,17.55
2022-09-12T22:04:28.542Z,14.98
2022-09-12T22:06:54.846Z,17.77
2022-09-12T22:09:21.139Z,17.88
2022-09-12T22:11:47.607Z,17.70
2022-09-12T22:14:13.895Z,19.50
2022-09-12T22:16:40.261Z,19.83
2022-09-12T22:19:06.602Z,17.73
2022-09-12T22:21:32.892Z,19.55
2022-09-12T22:23:59.319Z,20.05
2022-09-12T22:26:25.672Z,18.55
2022-09-12T22:28:52.027Z,17.98
2022-09-12T22:31:18.773Z,16.55
2022-09-12T22:33:45.103Z,16.08
2022-09-12T22:36:11.645Z,17.00
2022-09-12T22:38:37.983Z,16.23
2022-09-12T22:41:10.411Z,16.35
2022-09-12T22:43:36.972Z,18.30
2022-09-12T22:46:11.138Z,16.63
2022-09-12T22:48:37.781Z,18.15
2022-09-12T22:51:05.182Z,20.30
2022-09-12T22:53:31.850Z,21.00
2022-09-12T22:55:58.368Z,18.77
2022-09-12T22:58:24.756Z,19.08
2022-09-12T23:00:52.046Z,19.17
2022-09-12T23:03:19.292Z,16.80
2022-09-12T23:05:46.644Z,18.60
2022-09-12T23:08:14.367Z,19.88
2022-09-12T23:10:40.728Z,19.80
2022-09-12T23:13:07.367Z,20.17
2022-09-12T23:15:33.708Z,17.75
2022-09-12T23:18:00.079Z,19.85
2022-09-12T23:20:28.095Z,18.58
2022-09-12T23:22:54.516Z,19.23
2022-09-12T23:25:22.185Z,18.55
2022-09-12T23:27:48.576Z,18.35
2022-09-12T23:30:15.023Z,18.35
2022-09-12T23:32:41.332Z,18.80
2022-09-12T23:35:07.717Z,19.33
2022-09-12T23:37:34.007Z,19.23
2022-09-12T23:40:00.402Z,19.25
2022-09-12T23:42:26.795Z,18.63
2022-09-12T23:44:53.098Z,20.27
2022-09-12T23:47:19.416Z,17.45
2022-09-12T23:49:45.746Z,17.60
2022-09-12T23:52:12.096Z,18.08
2022-09-12T23:54:38.391Z,16.05
2022-09-12T23:57:04.791Z,15.82
2022-09-12T23:59:31.124Z,15.38
